Главная страница
METAR-TAF:

METAR-TAF

Аэропорты :

Прага, Чехия

широта: 50-06N, долгота: 014-15E, высота над уровнем моря: 365 м

Текущие метеонаблюдения

Эта сводка был подготовлена 23 минут назад, в 06:30 UTC
Ветер 3 Узел от северо-северо-восточный
Температура 18°C
Влажность 64%
Давление 1023 hPa
Видимость 10 км и более
Нет облачности ниже 1500 м, и нет кучево-дождевой облачности

METAR: LKPR 170630Z 03003KT CAVOK 18/11 Q1023 NOSIG

Время: 08:53 (06:53 UTC)

Прогноз

Эта сводка был подготовлена 1 час и 53 минут назад, в 05:00 UTC
Прогноз действительный с 17-го 06 UTC до 18-го 12 UTC
Ветер 6 Узел от северный
Видимость 10 км и более
Нет облачности ниже 1500 м, и нет кучево-дождевой облачности
изменения
С 17-го 08 UTC до 17-го 10 UTC
Ветер 10 Узел от восточно-северо-восточный

TAF: LKPR 170500Z 1706/1812 35006KT CAVOK BECMG 1708/1710 07010KT

Метеонаблюдения и прогнозы для более 4000 аэропортов (сводки METAR и TAF).

Имеющиеся станции представлены на карте желтыми и красными точками.

Чтобы увидеть название станции, наведите на нее мышь.

Затем щелкните, чтобы увидеть метеонаблюдения и метеопрогнозы.

Управление картой: чтобы увеличить масштаб, щелкните зеленые кнопки с черным крестиком; чтобы уменьшить масштаб, щелкните зеленую кнопку с тире; для просмотра соседних карт щелкайте зеленые стрелки.


METAR-TAF: